Time;durP1;ratioP1;P1;durP2;ratioP2;P2;SDS_P1;SDS_P2;PMS_P1;PMS_P2;Temp;Humidity;BMP_temperature;BMP_pressure;BME280_temperature;BME280_humidity;BME280_pressure;Samples;Min_cycle;Max_cycle;Signal;HPM_P1;HPM_P2
2023/04/28 00:01:17;;;;;;;30.77;15.90;;;5.90;99.90;;;;;;5060297;28;20062;-72
2023/04/28 00:03:43;;;;;;;29.10;14.43;;;5.80;99.90;;;;;;5061325;28;20021;-73
2023/04/28 00:06:10;;;;;;;28.08;15.68;;;5.80;99.90;;;;;;5061746;28;20037;-71
2023/04/28 00:08:35;;;;;;;32.75;15.77;;;5.80;99.90;;;;;;5061189;28;20080;-71
2023/04/28 00:11:01;;;;;;;33.75;16.15;;;5.80;99.90;;;;;;5061125;28;20032;-72
2023/04/28 00:13:27;;;;;;;30.40;15.80;;;5.80;99.90;;;;;;5061471;28;20017;-70
2023/04/28 00:15:53;;;;;;;36.40;15.82;;;5.80;99.90;;;;;;5061398;28;20398;-72
2023/04/28 00:18:20;;;;;;;32.53;16.50;;;5.80;99.90;;;;;;5060073;28;20018;-72
2023/04/28 00:20:46;;;;;;;30.30;15.60;;;5.80;99.90;;;;;;5061545;28;20083;-73
2023/04/28 00:23:12;;;;;;;29.35;15.25;;;5.70;99.90;;;;;;5061321;28;20025;-73
2023/04/28 00:25:38;;;;;;;36.20;17.10;;;5.70;99.90;;;;;;5061357;28;20036;-71
2023/04/28 00:28:03;;;;;;;36.65;16.40;;;5.70;99.90;;;;;;5061148;28;20048;-73
2023/04/28 00:30:30;;;;;;;33.25;16.02;;;5.60;99.90;;;;;;5059903;28;20025;-73
2023/04/28 00:32:56;;;;;;;29.58;15.93;;;5.70;99.90;;;;;;5061321;28;20029;-73
2023/04/28 00:35:22;;;;;;;31.40;17.13;;;5.60;99.90;;;;;;5061402;28;20067;-72
2023/04/28 00:37:47;;;;;;;31.65;16.55;;;5.60;99.90;;;;;;5059704;28;20033;-72
2023/04/28 00:40:13;;;;;;;30.88;16.73;;;5.60;99.90;;;;;;5061583;28;20454;-73
2023/04/28 00:42:39;;;;;;;32.35;16.23;;;5.60;99.90;;;;;;5061541;28;20032;-71
2023/04/28 00:45:06;;;;;;;35.63;17.13;;;5.50;99.90;;;;;;5060684;28;20059;-73
2023/04/28 00:47:36;;;;;;;35.35;17.45;;;5.50;99.90;;;;;;5062212;28;20116;-71
2023/04/28 00:50:04;;;;;;;31.38;17.23;;;5.50;99.90;;;;;;5064532;28;20021;-73
2023/04/28 00:52:31;;;;;;;32.78;16.55;;;5.40;99.90;;;;;;5064697;28;20103;-73
2023/04/28 00:54:56;;;;;;;34.70;16.58;;;5.40;99.90;;;;;;5064335;28;20040;-73
2023/04/28 00:57:22;;;;;;;33.25;17.50;;;5.40;99.90;;;;;;5064905;28;20018;-72
2023/04/28 00:59:48;;;;;;;33.00;17.58;;;5.30;99.90;;;;;;5064948;28;20029;-71
2023/04/28 01:02:16;;;;;;;34.15;17.13;;;5.30;99.90;;;;;;5063654;28;20025;-73
2023/04/28 01:04:44;;;;;;;32.00;16.85;;;5.30;99.90;;;;;;5064392;28;20024;-73
2023/04/28 01:07:10;;;;;;;29.08;16.00;;;5.20;99.90;;;;;;5063447;28;20063;-73
2023/04/28 01:09:36;;;;;;;33.00;17.17;;;5.30;99.90;;;;;;5063057;28;20025;-72
2023/04/28 01:12:02;;;;;;;35.60;18.08;;;5.20;99.90;;;;;;5064346;28;20051;-72
2023/04/28 01:14:27;;;;;;;34.03;17.15;;;5.20;99.90;;;;;;5063155;28;20104;-73
2023/04/28 01:16:53;;;;;;;34.13;17.52;;;5.10;99.90;;;;;;5064666;28;20051;-72
2023/04/28 01:19:23;;;;;;;34.13;17.23;;;5.10;99.90;;;;;;5064259;28;20466;-72
2023/04/28 01:21:49;;;;;;;34.22;16.73;;;5.10;99.90;;;;;;5064232;28;20021;-71
2023/04/28 01:24:16;;;;;;;36.67;17.95;;;5.10;99.90;;;;;;5064650;28;20028;-72
2023/04/28 01:26:41;;;;;;;36.60;18.02;;;5.10;99.90;;;;;;5063574;28;20036;-73
2023/04/28 01:29:07;;;;;;;33.95;16.83;;;5.10;99.90;;;;;;5064542;28;20015;-71
2023/04/28 01:31:33;;;;;;;35.78;16.80;;;5.10;99.90;;;;;;5062940;28;20029;-71
2023/04/28 01:33:58;;;;;;;32.67;17.80;;;5.10;99.90;;;;;;5063679;28;20466;-71
2023/04/28 01:36:26;;;;;;;34.92;17.75;;;5.10;99.90;;;;;;5062801;28;20059;-73
2023/04/28 01:38:52;;;;;;;38.65;17.42;;;5.10;99.90;;;;;;5062944;28;20021;-71
2023/04/28 01:41:17;;;;;;;39.38;18.30;;;5.10;99.90;;;;;;5062430;28;20108;-73
2023/04/28 01:43:43;;;;;;;38.40;18.80;;;5.10;99.90;;;;;;5062896;28;20025;-74
2023/04/28 01:46:11;;;;;;;36.88;18.67;;;5.10;99.90;;;;;;5063756;28;20084;-72
2023/04/28 01:48:37;;;;;;;38.13;18.70;;;5.10;99.90;;;;;;5063354;28;20036;-72
2023/04/28 01:51:04;;;;;;;41.45;18.55;;;5.00;99.90;;;;;;5063533;28;20041;-72
2023/04/28 01:53:30;;;;;;;38.53;19.40;;;5.00;99.90;;;;;;5062299;28;20450;-72
2023/04/28 01:55:57;;;;;;;40.40;20.27;;;5.00;99.90;;;;;;5062589;28;20029;-73
2023/04/28 01:58:23;;;;;;;41.58;20.17;;;5.00;99.90;;;;;;5062048;28;20036;-71
2023/04/28 02:00:49;;;;;;;37.60;19.15;;;5.00;99.90;;;;;;5062263;28;20047;-72
2023/04/28 02:03:15;;;;;;;39.92;20.10;;;4.90;99.90;;;;;;5062560;28;20027;-73
2023/04/28 02:05:41;;;;;;;39.60;19.30;;;4.90;99.90;;;;;;5062269;28;20033;-72
2023/04/28 02:08:06;;;;;;;36.90;19.50;;;4.90;99.90;;;;;;5061859;28;20048;-72
2023/04/28 02:10:32;;;;;;;39.30;18.70;;;4.80;99.90;;;;;;5062114;28;20046;-73
2023/04/28 02:12:57;;;;;;;42.30;19.85;;;4.80;99.90;;;;;;5063653;28;20486;-73
2023/04/28 02:15:23;;;;;;;44.70;18.77;;;4.80;99.90;;;;;;5063143;28;20021;-72
2023/04/28 02:17:48;;;;;;;41.90;20.33;;;4.80;99.90;;;;;;5063330;28;20049;-72
2023/04/28 02:20:14;;;;;;;37.80;19.40;;;4.70;99.90;;;;;;5062204;28;20025;-73
2023/04/28 02:22:40;;;;;;;42.08;20.83;;;4.70;99.90;;;;;;5063356;28;20028;-72
2023/04/28 02:25:07;;;;;;;41.60;20.67;;;4.70;99.90;;;;;;5063075;28;20742;-70
2023/04/28 02:27:35;;;;;;;43.55;20.42;;;4.70;99.90;;;;;;5063118;28;20017;-71
2023/04/28 02:30:02;;;;;;;44.03;19.75;;;4.70;99.90;;;;;;5061506;28;20073;-72
2023/04/28 02:32:27;;;;;;;40.50;19.52;;;4.70;99.90;;;;;;5062726;28;20081;-71
2023/04/28 02:34:56;;;;;;;40.63;18.77;;;4.70;99.90;;;;;;5061707;28;20052;-73
2023/04/28 02:37:22;;;;;;;40.75;19.38;;;4.70;99.90;;;;;;5062654;28;20029;-73
2023/04/28 02:39:47;;;;;;;41.55;19.52;;;4.70;99.90;;;;;;5063123;28;20161;-71
2023/04/28 02:42:13;;;;;;;40.67;19.05;;;4.60;99.90;;;;;;5062009;28;20079;-73
2023/04/28 02:44:39;;;;;;;39.97;19.67;;;4.60;99.90;;;;;;5062397;28;20132;-71
2023/04/28 02:47:05;;;;;;;38.42;20.52;;;4.60;99.90;;;;;;5061541;28;20511;-73
2023/04/28 02:49:30;;;;;;;43.13;19.60;;;4.70;99.90;;;;;;5061214;28;20043;-72
2023/04/28 02:51:56;;;;;;;49.33;20.45;;;4.60;99.90;;;;;;5057825;28;20021;-73
2023/04/28 02:54:28;;;;;;;40.47;20.30;;;4.60;99.90;;;;;;5056115;28;20029;-72
2023/04/28 02:56:54;;;;;;;41.83;20.27;;;4.60;99.90;;;;;;5057407;28;20048;-74
2023/04/28 02:59:21;;;;;;;49.00;21.20;;;4.60;99.90;;;;;;5055800;28;20037;-74
2023/04/28 03:01:47;;;;;;;44.13;21.02;;;4.60;99.90;;;;;;5061225;28;20043;-74
2023/04/28 03:04:13;;;;;;;49.25;21.65;;;4.50;99.90;;;;;;5060685;28;20044;-73
2023/04/28 03:06:39;;;;;;;52.75;20.27;;;4.50;99.90;;;;;;5062327;28;20061;-73
2023/04/28 03:09:05;;;;;;;42.38;20.67;;;4.50;99.90;;;;;;5061244;28;20048;-72
2023/04/28 03:11:31;;;;;;;43.90;20.85;;;4.40;99.90;;;;;;5061436;28;20028;-71
2023/04/28 03:13:56;;;;;;;42.00;21.00;;;4.40;99.90;;;;;;5060806;28;20032;-71
2023/04/28 03:16:22;;;;;;;44.55;20.90;;;4.40;99.90;;;;;;5062162;28;20048;-73
2023/04/28 03:18:48;;;;;;;41.50;19.83;;;4.40;99.90;;;;;;5061980;28;20067;-72
2023/04/28 03:21:13;;;;;;;51.05;21.98;;;4.30;99.90;;;;;;5062400;28;20057;-72
2023/04/28 03:23:39;;;;;;;45.70;20.52;;;4.30;99.90;;;;;;5062134;28;20025;-72
2023/04/28 03:26:04;;;;;;;42.85;21.08;;;4.40;99.90;;;;;;5061728;28;20653;-72
2023/04/28 03:28:30;;;;;;;47.90;20.90;;;4.30;99.90;;;;;;5062192;28;20036;-72
2023/04/28 03:30:56;;;;;;;44.60;20.65;;;4.30;99.90;;;;;;5060701;28;20397;-72
2023/04/28 03:33:21;;;;;;;42.17;21.23;;;4.30;99.90;;;;;;5061683;28;20021;-71
2023/04/28 03:35:47;;;;;;;45.70;20.38;;;4.30;99.90;;;;;;5062248;28;20021;-72
2023/04/28 03:38:13;;;;;;;45.42;20.52;;;4.30;99.90;;;;;;5061971;28;20029;-74
2023/04/28 03:40:39;;;;;;;45.58;21.25;;;4.30;99.90;;;;;;5062087;28;20025;-74
2023/04/28 03:43:04;;;;;;;42.78;19.55;;;4.30;99.90;;;;;;5062059;28;20013;-72
2023/04/28 03:45:30;;;;;;;45.45;20.58;;;4.20;99.90;;;;;;5059910;28;20052;-72
2023/04/28 03:47:56;;;;;;;39.58;20.08;;;4.30;99.90;;;;;;5060592;28;20021;-71
2023/04/28 03:50:21;;;;;;;43.38;19.25;;;4.20;99.90;;;;;;5061974;28;20031;-72
2023/04/28 03:52:47;;;;;;;41.13;19.80;;;4.30;99.90;;;;;;5060165;28;20033;-72
2023/04/28 03:55:13;;;;;;;41.80;19.80;;;4.30;99.90;;;;;;5061899;28;20021;-73
2023/04/28 03:57:38;;;;;;;44.90;19.85;;;4.30;99.90;;;;;;5061723;28;20025;-73
2023/04/28 04:00:04;;;;;;;42.22;18.88;;;4.30;99.90;;;;;;5061439;28;20021;-72
2023/04/28 04:02:30;;;;;;;43.92;20.65;;;4.30;99.90;;;;;;5061918;28;20033;-73
2023/04/28 04:04:56;;;;;;;44.40;19.85;;;4.30;99.90;;;;;;5061560;28;20061;-71
2023/04/28 04:07:22;;;;;;;40.78;19.48;;;4.40;99.90;;;;;;5061403;28;20116;-72
2023/04/28 04:09:47;;;;;;;39.50;19.45;;;4.40;99.90;;;;;;5061344;28;20103;-74
2023/04/28 04:12:14;;;;;;;37.25;18.58;;;4.40;99.90;;;;;;5061711;28;20528;-73
2023/04/28 04:14:39;;;;;;;35.35;17.88;;;4.40;99.90;;;;;;5059898;28;20045;-73
2023/04/28 04:17:05;;;;;;;44.50;19.40;;;4.40;99.90;;;;;;5060411;28;20017;-72
2023/04/28 04:19:31;;;;;;;38.63;17.85;;;4.40;99.90;;;;;;5060034;28;20035;-72
2023/04/28 04:21:56;;;;;;;37.65;18.35;;;4.50;99.90;;;;;;5063087;28;20039;-72
2023/04/28 04:24:22;;;;;;;34.22;17.42;;;4.50;99.90;;;;;;5065812;28;20021;-73
2023/04/28 04:26:47;;;;;;;35.05;17.88;;;4.50;99.90;;;;;;5065396;28;20452;-72
2023/04/28 04:29:13;;;;;;;32.47;16.67;;;4.50;99.90;;;;;;5065077;28;20033;-72
2023/04/28 04:31:38;;;;;;;34.95;16.73;;;4.60;99.90;;;;;;5064494;28;20096;-72
2023/04/28 04:34:04;;;;;;;37.75;17.73;;;4.60;99.90;;;;;;5065227;28;20021;-71
2023/04/28 04:36:31;;;;;;;37.17;17.45;;;4.60;99.90;;;;;;5063698;28;20029;-71
2023/04/28 04:38:57;;;;;;;33.72;16.75;;;4.60;99.90;;;;;;5064187;28;20025;-72
2023/04/28 04:41:25;;;;;;;32.47;16.98;;;4.60;99.90;;;;;;5063599;28;20028;-73
2023/04/28 04:43:51;;;;;;;35.20;16.48;;;4.60;99.90;;;;;;5064524;28;20029;-74
2023/04/28 04:46:16;;;;;;;32.28;15.85;;;4.70;99.90;;;;;;5063637;28;20094;-73
2023/04/28 04:48:43;;;;;;;31.23;16.25;;;4.70;99.90;;;;;;5064221;28;20043;-73
2023/04/28 04:51:08;;;;;;;30.15;15.60;;;4.80;99.90;;;;;;5065096;28;20085;-72
2023/04/28 04:53:34;;;;;;;32.92;15.23;;;4.90;99.90;;;;;;5064580;28;20044;-72
2023/04/28 04:56:00;;;;;;;31.52;15.73;;;4.90;99.90;;;;;;5062568;28;20017;-73
2023/04/28 04:58:26;;;;;;;34.72;14.57;;;4.90;99.90;;;;;;5064759;28;20032;-72
2023/04/28 05:00:51;;;;;;;29.88;13.70;;;4.90;99.90;;;;;;5063629;28;20029;-73
2023/04/28 05:03:17;;;;;;;28.13;13.85;;;5.00;99.90;;;;;;5064773;28;20093;-71
2023/04/28 05:05:44;;;;;;;26.38;13.57;;;5.00;99.90;;;;;;5063513;28;20060;-73
2023/04/28 05:08:10;;;;;;;28.08;14.90;;;5.10;99.90;;;;;;5063312;28;20373;-72
2023/04/28 05:10:36;;;;;;;29.88;14.30;;;5.10;99.90;;;;;;5062966;28;20563;-72
2023/04/28 05:13:02;;;;;;;36.55;14.52;;;5.10;99.90;;;;;;5063280;28;20016;-72
2023/04/28 05:15:28;;;;;;;26.60;13.18;;;5.20;99.90;;;;;;5064867;28;20036;-73
2023/04/28 05:17:53;;;;;;;24.70;13.00;;;5.20;99.90;;;;;;5064019;28;20025;-73
2023/04/28 05:20:19;;;;;;;26.83;12.70;;;5.20;99.90;;;;;;5064489;28;20058;-71
2023/04/28 05:22:45;;;;;;;26.77;11.98;;;5.30;99.90;;;;;;5064791;28;20026;-71
2023/04/28 05:25:10;;;;;;;25.77;12.55;;;5.30;99.90;;;;;;5062505;28;20052;-72
2023/04/28 05:27:38;;;;;;;21.52;12.05;;;5.40;99.90;;;;;;5063975;28;20063;-73
2023/04/28 05:30:05;;;;;;;24.58;12.63;;;5.40;99.90;;;;;;5063007;28;20048;-69
2023/04/28 05:32:31;;;;;;;18.88;11.15;;;5.40;99.90;;;;;;5060740;28;20091;-69
2023/04/28 05:34:56;;;;;;;21.30;11.90;;;5.50;99.90;;;;;;5063553;28;20462;-71
2023/04/28 05:37:22;;;;;;;20.52;10.52;;;5.60;99.90;;;;;;5064520;28;20017;-70
2023/04/28 05:39:47;;;;;;;23.83;11.38;;;5.60;99.90;;;;;;5063745;28;20106;-71
2023/04/28 05:42:13;;;;;;;22.58;11.00;;;5.70;99.90;;;;;;5064233;28;20032;-70
2023/04/28 05:44:38;;;;;;;23.60;11.52;;;5.70;99.90;;;;;;5063917;28;20100;-72
2023/04/28 05:47:04;;;;;;;22.02;11.07;;;5.80;99.90;;;;;;5063642;28;20071;-69
2023/04/28 05:49:30;;;;;;;19.85;10.30;;;5.90;99.90;;;;;;5064092;28;20570;-70
2023/04/28 05:51:55;;;;;;;19.88;10.63;;;6.00;99.90;;;;;;5062127;28;20043;-69
2023/04/28 05:54:21;;;;;;;19.92;10.85;;;6.10;99.90;;;;;;5063572;28;20017;-71
2023/04/28 05:56:47;;;;;;;20.48;10.05;;;6.20;99.90;;;;;;5063855;28;20025;-70
2023/04/28 05:59:13;;;;;;;18.67;9.57;;;6.20;99.90;;;;;;5063892;28;20087;-70
2023/04/28 06:01:38;;;;;;;16.70;9.88;;;6.30;99.90;;;;;;5062638;28;20021;-69
2023/04/28 06:04:04;;;;;;;16.23;9.35;;;6.40;99.90;;;;;;5063317;28;20029;-69
2023/04/28 06:06:31;;;;;;;23.50;9.95;;;6.50;99.90;;;;;;5060293;28;20040;-68
2023/04/28 06:08:56;;;;;;;14.82;8.45;;;6.70;99.90;;;;;;5063271;28;20057;-69
2023/04/28 06:11:22;;;;;;;17.77;8.20;;;6.80;99.90;;;;;;5062443;28;20029;-69
2023/04/28 06:13:49;;;;;;;19.42;8.48;;;6.90;99.90;;;;;;5063139;28;20025;-70
2023/04/28 06:16:16;;;;;;;17.60;8.45;;;7.00;99.90;;;;;;5061626;28;20033;-69
2023/04/28 06:18:43;;;;;;;18.33;7.88;;;7.10;99.90;;;;;;5063774;28;20020;-68
2023/04/28 06:21:08;;;;;;;17.63;8.00;;;7.20;99.90;;;;;;5062535;28;20031;-70
2023/04/28 06:23:35;;;;;;;15.40;7.40;;;7.30;99.90;;;;;;5061900;28;20056;-71
2023/04/28 06:26:00;;;;;;;18.42;7.88;;;7.40;99.90;;;;;;5060772;28;20593;-69
2023/04/28 06:28:26;;;;;;;16.42;7.47;;;7.50;99.90;;;;;;5061778;28;20029;-70
2023/04/28 06:30:52;;;;;;;10.90;6.50;;;7.50;99.90;;;;;;5062959;28;21544;-69
2023/04/28 06:33:17;;;;;;;11.88;7.15;;;7.60;99.90;;;;;;5061354;28;20040;-68
2023/04/28 06:35:44;;;;;;;12.00;6.68;;;7.60;99.90;;;;;;5058779;28;20021;-69
2023/04/28 06:38:10;;;;;;;13.63;6.38;;;7.70;99.90;;;;;;5061855;28;20025;-70
2023/04/28 06:40:36;;;;;;;13.18;6.10;;;7.80;99.90;;;;;;5061567;28;20028;-68
2023/04/28 06:43:01;;;;;;;11.85;6.93;;;7.90;99.90;;;;;;5062097;28;20025;-68
2023/04/28 06:45:27;;;;;;;14.23;6.40;;;7.90;99.90;;;;;;5060830;28;20037;-67
2023/04/28 06:47:54;;;;;;;11.98;6.00;;;8.00;99.90;;;;;;5060382;28;20029;-69
2023/04/28 06:50:21;;;;;;;14.88;6.72;;;8.10;99.90;;;;;;5060559;28;20043;-68
2023/04/28 06:52:47;;;;;;;10.13;6.55;;;8.20;99.90;;;;;;5059899;28;20025;-70
2023/04/28 06:55:15;;;;;;;15.52;6.88;;;8.30;99.90;;;;;;5059286;28;20109;-69
2023/04/28 06:57:41;;;;;;;13.65;6.60;;;8.30;99.90;;;;;;5061530;28;20061;-68
2023/04/28 07:00:08;;;;;;;16.20;6.68;;;8.40;99.90;;;;;;5061654;28;20024;-69
2023/04/28 07:02:34;;;;;;;12.43;6.80;;;8.50;99.90;;;;;;5057978;28;20017;-68
2023/04/28 07:04:59;;;;;;;12.88;6.03;;;8.50;99.90;;;;;;5060572;28;20523;-69
2023/04/28 07:07:25;;;;;;;10.00;6.43;;;8.60;99.90;;;;;;5061758;28;20029;-68
2023/04/28 07:09:52;;;;;;;12.30;6.15;;;8.60;99.90;;;;;;5060896;28;20071;-69
2023/04/28 07:12:18;;;;;;;14.50;6.72;;;8.70;99.90;;;;;;5061026;28;20025;-68
2023/04/28 07:14:43;;;;;;;12.50;6.60;;;8.70;99.90;;;;;;5062645;28;20031;-68
2023/04/28 07:17:09;;;;;;;15.85;6.65;;;8.70;99.90;;;;;;5061436;28;20028;-67
2023/04/28 07:19:35;;;;;;;15.48;6.38;;;8.80;99.90;;;;;;5061190;28;20095;-69
2023/04/28 07:22:01;;;;;;;12.48;6.40;;;8.80;99.90;;;;;;5062304;28;20025;-68
2023/04/28 07:24:27;;;;;;;15.27;6.97;;;8.80;99.90;;;;;;5061832;28;20025;-68
2023/04/28 07:26:52;;;;;;;16.83;6.60;;;8.90;99.90;;;;;;5062236;28;20036;-67
2023/04/28 07:29:18;;;;;;;11.75;6.43;;;8.90;99.90;;;;;;5062379;28;20371;-69
2023/04/28 07:31:44;;;;;;;12.48;6.50;;;8.90;99.90;;;;;;5060659;28;20025;-68
2023/04/28 07:34:10;;;;;;;12.80;7.10;;;9.00;99.90;;;;;;5062189;28;20029;-69
2023/04/28 07:36:35;;;;;;;15.50;6.78;;;9.10;99.90;;;;;;5061307;28;20474;-68
2023/04/28 07:39:01;;;;;;;13.88;6.35;;;9.10;99.90;;;;;;5061730;28;20017;-66
2023/04/28 07:41:27;;;;;;;15.52;6.80;;;9.20;99.90;;;;;;5061399;28;20017;-68
2023/04/28 07:43:53;;;;;;;12.05;6.85;;;9.20;99.90;;;;;;5062044;28;20044;-69
2023/04/28 07:46:19;;;;;;;11.35;6.30;;;9.30;99.90;;;;;;5059496;28;20045;-70
2023/04/28 07:48:45;;;;;;;13.38;6.68;;;9.40;99.90;;;;;;5060560;28;20076;-68
2023/04/28 07:51:10;;;;;;;13.48;6.72;;;9.50;99.90;;;;;;5061893;28;20028;-67
2023/04/28 07:53:36;;;;;;;9.55;5.85;;;9.60;99.90;;;;;;5061170;28;20487;-67
2023/04/28 07:56:02;;;;;;;11.43;6.47;;;9.70;99.90;;;;;;5059994;28;20021;-68
2023/04/28 07:58:28;;;;;;;12.43;6.50;;;9.80;99.90;;;;;;5059656;28;20032;-68
2023/04/28 08:00:53;;;;;;;13.88;6.82;;;9.90;99.90;;;;;;5060872;28;20017;-68
2023/04/28 08:03:20;;;;;;;12.70;6.47;;;9.90;99.90;;;;;;5061067;28;20071;-68
2023/04/28 08:05:45;;;;;;;15.73;6.93;;;10.00;99.90;;;;;;5061521;28;20021;-67
2023/04/28 08:08:11;;;;;;;18.25;6.53;;;10.00;99.90;;;;;;5061815;28;20025;-68
2023/04/28 08:10:39;;;;;;;18.40;6.80;;;10.00;99.90;;;;;;5057124;28;20473;-68
2023/04/28 08:13:05;;;;;;;17.15;7.30;;;10.00;99.90;;;;;;5057127;28;20044;-69
2023/04/28 08:15:31;;;;;;;15.60;7.35;;;10.00;99.90;;;;;;5061070;28;20025;-67
2023/04/28 08:17:57;;;;;;;15.73;6.85;;;10.10;99.90;;;;;;5060408;28;20063;-70
2023/04/28 08:20:22;;;;;;;14.73;7.07;;;10.20;99.90;;;;;;5061063;28;20039;-71
2023/04/28 08:22:48;;;;;;;13.50;6.90;;;10.20;99.90;;;;;;5059843;28;20037;-69
2023/04/28 08:25:14;;;;;;;16.45;6.85;;;10.20;99.90;;;;;;5058692;28;20045;-68
2023/04/28 08:27:40;;;;;;;17.33;7.53;;;10.30;99.90;;;;;;5058491;28;20023;-68
2023/04/28 08:30:07;;;;;;;14.95;7.88;;;10.40;99.90;;;;;;5057221;28;20041;-68
2023/04/28 08:32:33;;;;;;;15.95;7.22;;;10.40;99.90;;;;;;5056299;28;20025;-69
2023/04/28 08:34:59;;;;;;;13.35;7.45;;;10.60;99.90;;;;;;5059047;28;20025;-67
2023/04/28 08:37:26;;;;;;;16.67;6.88;;;10.60;99.90;;;;;;5058995;28;20029;-69
2023/04/28 08:39:58;;;;;;;18.73;7.88;;;10.70;99.90;;;;;;5057571;28;20054;-69
2023/04/28 08:42:27;;;;;;;12.65;7.15;;;10.70;99.90;;;;;;5060179;28;20029;-68
2023/04/28 08:44:58;;;;;;;14.88;7.15;;;10.80;99.90;;;;;;5055923;28;20029;-69
2023/04/28 08:47:32;;;;;;;13.95;7.47;;;10.80;99.90;;;;;;5058250;28;20116;-67
2023/04/28 08:50:02;;;;;;;14.80;7.80;;;10.80;99.90;;;;;;5060978;28;20025;-69
2023/04/28 08:52:29;;;;;;;11.63;7.47;;;10.90;99.90;;;;;;5058764;28;20280;-68
2023/04/28 08:54:57;;;;;;;13.50;8.00;;;10.90;99.90;;;;;;5059931;28;20116;-69
2023/04/28 08:57:23;;;;;;;15.15;8.02;;;11.00;99.90;;;;;;5058273;28;20029;-70
2023/04/28 08:59:49;;;;;;;18.83;7.93;;;11.10;99.90;;;;;;5059896;28;20026;-69
2023/04/28 09:02:15;;;;;;;15.48;7.93;;;11.20;99.90;;;;;;5060039;28;20438;-70
2023/04/28 09:04:40;;;;;;;19.10;8.38;;;11.30;99.90;;;;;;5058321;28;20033;-70
2023/04/28 09:07:13;;;;;;;12.82;7.90;;;11.40;99.90;;;;;;5059060;28;20498;-68
2023/04/28 09:09:39;;;;;;;17.02;8.50;;;11.50;99.90;;;;;;5062240;28;20035;-69
2023/04/28 09:12:06;;;;;;;14.60;7.82;;;11.70;99.90;;;;;;5064260;28;20024;-68
2023/04/28 09:14:37;;;;;;;16.08;8.05;;;11.90;99.90;;;;;;5063294;28;20065;-68
2023/04/28 09:17:12;;;;;;;13.05;7.35;;;12.00;99.90;;;;;;5062923;28;20025;-68
2023/04/28 09:19:41;;;;;;;19.30;8.27;;;12.10;99.90;;;;;;5064098;28;20067;-68
2023/04/28 09:22:07;;;;;;;18.95;8.20;;;12.30;99.90;;;;;;5063042;28;20067;-68
2023/04/28 09:24:42;;;;;;;18.08;8.35;;;12.40;99.90;;;;;;5063467;28;20025;-68
2023/04/28 09:27:10;;;;;;;16.20;7.90;;;12.60;99.90;;;;;;5063746;28;20128;-68
2023/04/28 09:29:37;;;;;;;15.65;8.30;;;12.80;99.90;;;;;;5064174;28;20021;-68
2023/04/28 09:32:17;;;;;;;12.82;7.80;;;12.70;99.90;;;;;;5063513;28;20454;-67
2023/04/28 09:34:47;;;;;;;14.13;7.93;;;12.70;99.90;;;;;;5063914;28;20466;-69
2023/04/28 09:37:21;;;;;;;14.48;8.00;;;12.70;99.90;;;;;;5063715;28;20024;-69
2023/04/28 09:39:49;;;;;;;16.43;8.33;;;12.60;99.90;;;;;;5064383;28;20060;-70
2023/04/28 09:42:45;;;;;;;15.48;8.40;;;12.60;99.90;;;;;;5063189;28;20466;-70
2023/04/28 09:45:15;;;;;;;22.60;8.55;;;12.50;99.90;;;;;;5058090;28;21523;-67
2023/04/28 09:47:43;;;;;;;17.23;8.73;;;12.50;99.90;;;;;;5063965;28;20025;-68
2023/04/28 09:50:13;;;;;;;14.18;8.18;;;12.50;99.90;;;;;;5063816;28;20017;-67
2023/04/28 09:52:41;;;;;;;15.25;8.45;;;12.50;99.90;;;;;;5063939;28;20086;-68
2023/04/28 09:55:10;;;;;;;16.20;8.82;;;12.40;99.90;;;;;;5063890;28;20023;-68
2023/04/28 09:57:37;;;;;;;18.90;8.88;;;12.40;99.90;;;;;;5061767;28;20025;-69
2023/04/28 10:00:05;;;;;;;16.20;8.43;;;12.40;99.90;;;;;;5063279;28;20020;-68
2023/04/28 10:02:31;;;;;;;18.63;9.38;;;12.50;99.90;;;;;;5062423;28;20036;-67
2023/04/28 10:04:57;;;;;;;16.10;8.98;;;12.50;99.90;;;;;;5056383;28;20029;-68
2023/04/28 10:07:23;;;;;;;17.98;9.27;;;12.60;99.90;;;;;;5047813;28;20098;-68
2023/04/28 10:09:50;;;;;;;15.10;8.70;;;12.60;99.90;;;;;;5052595;28;20041;-67
2023/04/28 10:12:16;;;;;;;15.45;8.40;;;12.60;99.90;;;;;;5063421;28;20013;-69
2023/04/28 10:14:43;;;;;;;17.58;8.70;;;12.80;99.90;;;;;;5059358;28;20052;-69
2023/04/28 10:17:10;;;;;;;16.30;9.32;;;12.80;99.90;;;;;;5057888;28;20049;-68
2023/04/28 10:19:36;;;;;;;18.45;9.63;;;12.90;99.90;;;;;;5059631;28;20417;-69
2023/04/28 10:22:11;;;;;;;17.92;9.02;;;13.00;99.90;;;;;;5063265;28;20020;-69
2023/04/28 10:24:50;;;;;;;21.85;9.65;;;13.10;99.90;;;;;;5058906;28;20119;-69
2023/04/28 10:27:16;;;;;;;16.02;8.85;;;13.10;99.90;;;;;;5062100;28;20041;-68
2023/04/28 10:29:42;;;;;;;17.90;9.18;;;13.10;99.90;;;;;;5061389;28;20105;-68
2023/04/28 10:32:15;;;;;;;20.55;10.10;;;13.30;99.90;;;;;;5063134;28;20040;-69
2023/04/28 10:34:41;;;;;;;19.77;10.13;;;13.40;99.90;;;;;;5062969;28;20041;-68
2023/04/28 10:37:06;;;;;;;17.48;10.05;;;13.60;99.90;;;;;;5059236;28;20036;-68
2023/04/28 10:39:32;;;;;;;18.17;8.65;;;13.70;99.90;;;;;;5061744;28;20085;-69
2023/04/28 10:41:57;;;;;;;20.05;10.20;;;13.80;99.90;;;;;;5055175;28;20025;-70
2023/04/28 10:44:29;;;;;;;16.88;9.20;;;13.90;99.90;;;;;;5062082;28;20123;-67
2023/04/28 10:47:02;;;;;;;20.42;9.45;;;14.00;99.90;;;;;;5061812;28;20045;-67
2023/04/28 10:49:56;;;;;;;21.77;9.27;;;14.10;99.90;;;;;;5060480;28;20025;-69
2023/04/28 10:52:37;;;;;;;18.00;10.73;;;14.10;99.90;;;;;;5061578;28;20116;-67
2023/04/28 10:55:30;;;;;;;20.05;10.00;;;14.10;99.90;;;;;;5061692;28;20039;-68
2023/04/28 10:58:14;;;;;;;21.98;10.18;;;14.10;99.90;;;;;;5062401;28;20146;-69
2023/04/28 11:00:41;;;;;;;18.27;8.13;;;13.90;99.90;;;;;;5062838;28;20033;-70
2023/04/28 11:03:07;;;;;;;25.05;10.63;;;13.80;99.90;;;;;;5061868;28;20024;-69
2023/04/28 11:05:35;;;;;;;21.92;10.93;;;13.70;99.90;;;;;;5058168;28;20044;-67
2023/04/28 11:08:24;;;;;;;18.17;10.57;;;13.60;99.90;;;;;;5062047;28;20036;-67
2023/04/28 11:11:19;;;;;;;20.08;9.93;;;13.50;99.90;;;;;;5058660;28;20044;-68
2023/04/28 11:13:48;;;;;;;18.73;10.82;;;13.40;99.90;;;;;;5060877;28;20009;-68
2023/04/28 11:16:16;;;;;;;19.40;10.57;;;13.30;99.90;;;;;;5061928;28;20055;-69
2023/04/28 11:19:04;;;;;;;24.73;9.68;;;13.20;99.90;;;;;;5059073;28;20064;-68
2023/04/28 11:21:31;;;;;;;21.20;10.43;;;13.10;99.90;;;;;;5057407;28;20033;-68
2023/04/28 11:23:57;;;;;;;16.65;10.60;;;13.10;99.90;;;;;;5059406;28;20025;-69
2023/04/28 11:26:24;;;;;;;19.33;10.40;;;13.10;99.90;;;;;;5059255;28;20041;-70
2023/04/28 11:28:54;;;;;;;18.58;10.60;;;13.10;99.90;;;;;;5061447;28;20474;-70
2023/04/28 11:31:22;;;;;;;21.13;11.55;;;13.20;99.90;;;;;;5061807;28;20025;-71
2023/04/28 11:33:50;;;;;;;17.30;9.80;;;13.30;99.90;;;;;;5062232;28;20041;-68
2023/04/28 11:36:34;;;;;;;18.58;10.63;;;13.30;99.90;;;;;;5061488;28;20025;-69
2023/04/28 11:39:00;;;;;;;24.33;11.63;;;13.40;99.90;;;;;;5061736;28;20024;-70
2023/04/28 11:41:26;;;;;;;18.80;11.23;;;13.40;99.90;;;;;;5060667;28;20280;-69
2023/04/28 11:43:52;;;;;;;18.17;11.00;;;13.50;99.90;;;;;;5061467;28;20047;-69
2023/04/28 11:46:20;;;;;;;20.95;11.10;;;13.40;99.90;;;;;;5060466;28;20152;-68
2023/04/28 11:48:46;;;;;;;21.00;11.80;;;13.40;99.90;;;;;;5060392;28;20044;-68
2023/04/28 11:51:28;;;;;;;21.25;11.30;;;13.50;99.90;;;;;;5061838;28;20679;-69
2023/04/28 11:53:54;;;;;;;21.65;11.00;;;13.50;99.90;;;;;;5062003;28;20037;-70
2023/04/28 11:56:20;;;;;;;20.40;11.07;;;13.50;99.90;;;;;;5059541;28;20096;-69
2023/04/28 11:58:45;;;;;;;22.90;11.15;;;13.40;99.90;;;;;;5061697;28;20036;-69
2023/04/28 12:01:14;;;;;;;20.52;11.77;;;13.30;99.90;;;;;;5060468;28;20513;-68
2023/04/28 12:03:45;;;;;;;22.30;11.60;;;13.10;99.90;;;;;;5061342;28;20025;-68
2023/04/28 12:06:15;;;;;;;20.40;11.48;;;13.10;99.90;;;;;;5061564;28;20041;-69
2023/04/28 12:08:41;;;;;;;26.23;12.25;;;13.10;99.90;;;;;;5060096;28;20021;-67
2023/04/28 12:11:11;;;;;;;22.02;12.82;;;13.10;99.90;;;;;;5061234;28;20029;-69
2023/04/28 12:13:38;;;;;;;22.88;11.70;;;13.00;99.90;;;;;;5059860;28;20119;-66
2023/04/28 12:16:05;;;;;;;20.20;12.45;;;13.00;99.90;;;;;;5056972;28;20054;-68
2023/04/28 12:18:38;;;;;;;23.95;11.73;;;13.00;99.90;;;;;;5058999;28;20040;-68
2023/04/28 12:21:18;;;;;;;20.75;11.93;;;13.10;99.90;;;;;;5057858;28;20048;-68
2023/04/28 12:23:44;;;;;;;21.70;11.68;;;13.20;99.90;;;;;;5059048;28;20099;-69
2023/04/28 12:26:10;;;;;;;17.75;11.32;;;13.30;99.90;;;;;;5055956;28;20870;-69
2023/04/28 12:28:37;;;;;;;24.08;11.73;;;13.40;99.90;;;;;;5058016;28;20029;-70
2023/04/28 12:31:09;;;;;;;17.15;10.20;;;13.40;99.90;;;;;;5058180;28;20033;-67
2023/04/28 12:33:39;;;;;;;19.27;12.13;;;13.50;99.90;;;;;;5048819;28;21621;-69
2023/04/28 12:36:06;;;;;;;21.70;11.55;;;13.60;99.90;;;;;;5058646;28;20029;-68
2023/04/28 12:38:31;;;;;;;20.27;11.40;;;13.70;99.90;;;;;;5059544;28;20067;-68